createdAt,value
2023-04-23T00:00:34.166Z,54.82
2023-04-23T00:03:13.121Z,54.67
2023-04-23T00:05:47.722Z,56.21
2023-04-23T00:08:22.994Z,55.72
2023-04-23T00:10:58.627Z,55.17
2023-04-23T00:13:31.487Z,56.36
2023-04-23T00:16:04.297Z,56.01
2023-04-23T00:18:36.638Z,57.66
2023-04-23T00:21:09.424Z,56.16
2023-04-23T00:23:42.246Z,55.41
2023-04-23T00:26:18.652Z,56.21
2023-04-23T00:28:51.057Z,56.39
2023-04-23T00:31:24.497Z,56.51
2023-04-23T00:33:56.783Z,56.99
2023-04-23T00:36:29.172Z,55.59
2023-04-23T00:39:02.238Z,54.16
2023-04-23T00:41:37.829Z,56.54
2023-04-23T00:44:10.459Z,56.43
2023-04-23T00:46:42.696Z,56.69
2023-04-23T00:49:16.948Z,57.91
2023-04-23T00:51:49.263Z,57.62
2023-04-23T00:54:22.262Z,57.21
2023-04-23T00:57:00.162Z,58.65
2023-04-23T00:59:36.268Z,57.53
2023-04-23T01:02:08.612Z,58.59
2023-04-23T01:04:44.289Z,59.00
2023-04-23T01:07:17.757Z,57.97
2023-04-23T01:09:50.244Z,59.06
2023-04-23T01:12:25.077Z,59.12
2023-04-23T01:14:57.740Z,58.26
2023-04-23T01:17:30.158Z,58.81
2023-04-23T01:20:02.479Z,58.93
2023-04-23T01:22:37.744Z,58.74
2023-04-23T01:25:11.351Z,58.94
2023-04-23T01:27:44.585Z,57.61
2023-04-23T01:30:18.095Z,58.71
2023-04-23T01:32:52.376Z,57.49
2023-04-23T01:35:24.904Z,56.21
2023-04-23T01:38:01.222Z,56.66
2023-04-23T01:40:33.493Z,57.16
2023-04-23T01:43:06.078Z,57.34
2023-04-23T01:45:38.569Z,55.96
2023-04-23T01:48:10.957Z,55.92
2023-04-23T01:50:43.805Z,56.71
2023-04-23T01:53:18.641Z,55.81
2023-04-23T01:55:54.479Z,55.50
2023-04-23T01:58:27.609Z,55.37
2023-04-23T02:01:00.095Z,55.99
2023-04-23T02:03:34.333Z,56.14
2023-04-23T02:06:07.319Z,55.17
2023-04-23T02:08:42.655Z,54.43
2023-04-23T02:11:14.929Z,53.98
2023-04-23T02:13:47.156Z,54.79
2023-04-23T02:16:19.946Z,54.70
2023-04-23T02:18:52.302Z,52.94
2023-04-23T02:21:24.694Z,53.26
2023-04-23T02:23:59.538Z,53.19
2023-04-23T02:26:32.002Z,53.62
2023-04-23T02:29:04.272Z,53.10
2023-04-23T02:31:36.695Z,52.93
2023-04-23T02:34:09.041Z,53.20
2023-04-23T02:36:41.503Z,53.30
2023-04-23T02:39:16.299Z,52.35
2023-04-23T02:41:48.594Z,52.51
2023-04-23T02:44:20.886Z,52.23
2023-04-23T02:46:53.251Z,52.89
2023-04-23T02:49:26.898Z,52.77
2023-04-23T02:51:59.306Z,51.99
2023-04-23T02:54:37.172Z,53.32
2023-04-23T02:57:09.929Z,51.83
2023-04-23T02:59:42.147Z,51.74
2023-04-23T03:02:14.499Z,51.82
2023-04-23T03:04:47.519Z,51.93
2023-04-23T03:07:20.261Z,50.88
2023-04-23T03:09:55.055Z,51.96
2023-04-23T03:12:27.395Z,50.19
2023-04-23T03:14:59.779Z,49.64
2023-04-23T03:17:32.027Z,49.74
2023-04-23T03:20:04.270Z,48.49
2023-04-23T03:22:36.468Z,47.91
2023-04-23T03:25:12.377Z,47.11
2023-04-23T03:27:45.012Z,46.59
2023-04-23T03:30:17.401Z,45.74
2023-04-23T03:32:49.846Z,44.24
2023-04-23T03:35:22.293Z,42.87
2023-04-23T03:37:55.015Z,40.19
2023-04-23T03:40:30.226Z,40.83
2023-04-23T03:43:02.439Z,40.23
2023-04-23T03:45:34.959Z,41.13
2023-04-23T03:48:07.834Z,40.77
2023-04-23T03:50:40.991Z,40.48
2023-04-23T03:53:13.375Z,39.98
2023-04-23T03:55:48.507Z,41.37
2023-04-23T03:58:21.012Z,40.76
2023-04-23T04:00:55.357Z,40.40
2023-04-23T04:03:27.892Z,40.83
2023-04-23T04:06:00.572Z,40.70
2023-04-23T04:08:32.967Z,40.72
2023-04-23T04:11:08.515Z,40.59
2023-04-23T04:13:40.899Z,40.34
2023-04-23T04:16:13.594Z,40.21
2023-04-23T04:18:45.912Z,40.27
2023-04-23T04:21:19.202Z,39.98
2023-04-23T04:23:51.476Z,40.21
2023-04-23T04:26:26.446Z,39.17
2023-04-23T04:28:59.591Z,39.69
2023-04-23T04:31:32.479Z,39.46
2023-04-23T04:34:04.784Z,39.06
2023-04-23T04:36:37.125Z,39.68
2023-04-23T04:39:09.315Z,38.86
2023-04-23T04:41:44.694Z,39.57
2023-04-23T04:44:17.559Z,39.45
2023-04-23T04:46:49.874Z,38.79
2023-04-23T04:49:22.331Z,38.02
2023-04-23T04:51:54.583Z,38.85
2023-04-23T04:54:27.120Z,38.01
2023-04-23T04:57:02.566Z,37.91
2023-04-23T04:59:34.892Z,38.21
2023-04-23T05:02:07.285Z,37.93
2023-04-23T05:04:39.938Z,37.98
2023-04-23T05:07:14.055Z,37.55
2023-04-23T05:09:46.362Z,38.08
2023-04-23T05:12:21.206Z,37.39
2023-04-23T05:14:54.436Z,37.51
2023-04-23T05:17:26.696Z,37.81
2023-04-23T05:19:58.963Z,36.69
2023-04-23T05:22:32.781Z,36.91
2023-04-23T05:25:05.193Z,36.99
2023-04-23T05:27:40.254Z,36.45
2023-04-23T05:30:15.559Z,36.61
2023-04-23T05:32:47.944Z,36.11
2023-04-23T05:35:20.570Z,35.63
2023-04-23T05:37:53.458Z,35.72
2023-04-23T05:40:25.752Z,35.01
2023-04-23T05:43:02.166Z,35.41
2023-04-23T05:45:34.625Z,34.96
2023-04-23T05:48:06.935Z,35.15
2023-04-23T05:50:39.214Z,34.94
2023-04-23T05:53:11.497Z,34.14
2023-04-23T05:55:43.946Z,33.16
2023-04-23T05:58:19.393Z,34.06
2023-04-23T06:00:53.154Z,34.26
2023-04-23T06:03:27.194Z,33.50
2023-04-23T06:05:59.913Z,32.69
2023-04-23T06:08:32.355Z,32.67
2023-04-23T06:11:04.891Z,33.05
2023-04-23T06:13:43.526Z,32.45
2023-04-23T06:16:16.555Z,32.39
2023-04-23T06:18:48.828Z,31.65
2023-04-23T06:21:21.294Z,31.15
2023-04-23T06:23:53.750Z,31.56
2023-04-23T06:26:26.155Z,30.81
2023-04-23T06:29:01.010Z,30.10
2023-04-23T06:31:33.882Z,30.59
2023-04-23T06:34:06.224Z,28.89
2023-04-23T06:36:38.535Z,29.59
2023-04-23T06:39:10.797Z,30.01
2023-04-23T06:41:43.617Z,28.99
2023-04-23T06:44:18.467Z,28.79
2023-04-23T06:46:50.859Z,27.75
2023-04-23T06:49:23.473Z,28.27
2023-04-23T06:51:57.777Z,27.12
2023-04-23T06:54:32.677Z,26.04
2023-04-23T06:57:04.881Z,26.35
2023-04-23T06:59:39.663Z,25.81
2023-04-23T07:02:12.193Z,24.57
2023-04-23T07:04:44.708Z,23.72
2023-04-23T07:07:17.352Z,23.19
2023-04-23T07:09:49.564Z,23.33
2023-04-23T07:12:21.901Z,23.65
2023-04-23T07:14:56.761Z,23.49
2023-04-23T07:17:29.058Z,22.72
2023-04-23T07:20:06.663Z,22.01
2023-04-23T07:22:39.093Z,21.69
2023-04-23T07:25:12.031Z,20.15
2023-04-23T07:27:44.302Z,19.59
2023-04-23T07:30:19.563Z,20.06
2023-04-23T07:32:51.912Z,19.43
2023-04-23T07:35:24.524Z,18.47
2023-04-23T07:37:58.154Z,17.29
2023-04-23T07:40:32.646Z,17.62
2023-04-23T07:43:04.965Z,17.06
2023-04-23T07:45:39.810Z,16.31
2023-04-23T07:48:12.180Z,15.61
2023-04-23T07:50:44.472Z,15.72
2023-04-23T07:53:16.778Z,14.59
2023-04-23T07:55:49.083Z,14.90
2023-04-23T07:58:21.335Z,14.59
2023-04-23T08:00:56.563Z,14.28
2023-04-23T08:03:29.314Z,13.51
2023-04-23T08:06:01.685Z,13.54
2023-04-23T08:08:33.880Z,14.28
2023-04-23T08:11:06.359Z,12.56
2023-04-23T08:13:38.817Z,11.77
2023-04-23T08:16:13.775Z,11.52
2023-04-23T08:18:57.829Z,11.24
2023-04-23T08:21:37.120Z,10.91
2023-04-23T08:24:09.972Z,10.31
2023-04-23T08:26:42.206Z,10.44
2023-04-23T08:29:14.336Z,9.79
2023-04-23T08:31:49.244Z,9.59
2023-04-23T08:34:21.664Z,9.49
2023-04-23T08:36:53.858Z,9.51
2023-04-23T08:39:28.121Z,9.56
2023-04-23T08:42:02.699Z,8.94
2023-04-23T08:44:37.921Z,8.26
2023-04-23T08:47:18.738Z,8.25
2023-04-23T08:49:53.715Z,9.07
2023-04-23T08:52:29.552Z,9.36
2023-04-23T08:55:06.061Z,9.11
2023-04-23T08:57:39.580Z,8.73
2023-04-23T09:00:13.173Z,8.94
2023-04-23T09:02:50.213Z,8.82
2023-04-23T09:05:22.795Z,8.70
2023-04-23T09:07:56.393Z,8.47
2023-04-23T09:10:28.686Z,8.46
2023-04-23T09:13:00.961Z,8.03
2023-04-23T09:15:33.385Z,8.24
2023-04-23T09:18:09.570Z,8.85
2023-04-23T09:20:42.129Z,8.41
2023-04-23T09:23:17.792Z,7.97
2023-04-23T09:25:50.232Z,7.97
2023-04-23T09:28:22.449Z,7.71
2023-04-23T09:30:54.812Z,7.21
2023-04-23T09:33:29.766Z,6.11
2023-04-23T09:36:02.214Z,6.11
2023-04-23T09:38:34.553Z,5.96
2023-04-23T09:41:26.533Z,5.51
2023-04-23T09:43:59.332Z,5.26
2023-04-23T09:46:40.621Z,5.20
2023-04-23T09:49:16.764Z,5.58
2023-04-23T09:51:51.478Z,5.21
2023-04-23T09:54:27.273Z,5.14
2023-04-23T09:57:02.237Z,4.87
2023-04-23T09:59:46.672Z,4.82
2023-04-23T10:02:22.368Z,4.75
2023-04-23T10:05:10.088Z,4.64
2023-04-23T10:07:49.208Z,4.86
2023-04-23T10:10:23.175Z,5.14
2023-04-23T10:12:57.661Z,4.46
2023-04-23T10:15:33.161Z,4.45
2023-04-23T10:18:07.811Z,4.52
2023-04-23T10:20:43.913Z,4.60
2023-04-23T10:23:17.100Z,5.14
2023-04-23T10:25:51.672Z,4.07
2023-04-23T10:28:29.322Z,3.64
2023-04-23T10:31:02.535Z,3.96
2023-04-23T10:33:42.903Z,3.84
2023-04-23T10:36:31.391Z,3.59
2023-04-23T10:39:07.962Z,3.39
2023-04-23T10:41:42.536Z,3.59
2023-04-23T10:44:28.368Z,3.44
2023-04-23T10:47:10.702Z,3.44
2023-04-23T10:49:43.611Z,3.41
2023-04-23T10:52:24.571Z,3.24
2023-04-23T10:55:03.219Z,3.11
2023-04-23T10:57:36.245Z,3.01
2023-04-23T11:00:09.864Z,3.02
2023-04-23T11:02:48.235Z,3.13
2023-04-23T11:05:20.862Z,2.83
2023-04-23T11:08:19.454Z,3.06
2023-04-23T11:11:03.281Z,2.76
2023-04-23T11:13:35.473Z,2.71
2023-04-23T11:16:22.124Z,2.58
2023-04-23T11:19:12.249Z,2.84
2023-04-23T11:22:03.019Z,2.85
2023-04-23T11:24:42.540Z,2.59
2023-04-23T11:27:17.052Z,2.28
2023-04-23T11:29:51.490Z,2.31
2023-04-23T11:32:25.315Z,2.43
2023-04-23T11:34:59.319Z,2.24
2023-04-23T11:37:31.491Z,2.33
2023-04-23T11:40:11.561Z,2.36
2023-04-23T11:42:47.816Z,2.43
2023-04-23T11:45:21.526Z,2.31
2023-04-23T11:47:56.487Z,2.19
2023-04-23T11:50:30.865Z,2.24
2023-04-23T11:53:09.486Z,2.19
2023-04-23T11:55:46.005Z,2.35
2023-04-23T11:58:22.141Z,2.27
2023-04-23T12:01:02.637Z,2.24
2023-04-23T12:03:34.814Z,2.21
2023-04-23T12:06:07.959Z,2.20
2023-04-23T12:08:43.116Z,2.24
2023-04-23T12:11:17.923Z,2.04
2023-04-23T12:13:50.041Z,2.14
2023-04-23T12:16:22.498Z,1.94
2023-04-23T12:18:58.510Z,2.18
2023-04-23T12:21:31.581Z,2.08
2023-04-23T12:24:03.876Z,2.08
2023-04-23T12:26:42.499Z,2.10
2023-04-23T12:29:17.749Z,2.05
2023-04-23T12:31:50.119Z,2.22
2023-04-23T12:34:23.749Z,2.13
2023-04-23T12:36:58.823Z,2.40
2023-04-23T12:39:34.128Z,2.41
2023-04-23T12:42:10.837Z,2.23
2023-04-23T12:44:44.003Z,2.30
2023-04-23T12:47:16.133Z,2.34
2023-04-23T12:49:49.758Z,2.13
2023-04-23T12:52:22.074Z,2.06
2023-04-23T12:54:56.715Z,2.17
2023-04-23T12:57:31.675Z,2.17
2023-04-23T13:00:05.061Z,2.19
2023-04-23T13:02:37.347Z,2.19
2023-04-23T13:05:10.649Z,2.29
2023-04-23T13:07:42.945Z,2.41
2023-04-23T13:10:15.740Z,2.34
2023-04-23T13:12:50.581Z,2.36
2023-04-23T13:15:23.488Z,2.23
2023-04-23T13:17:56.473Z,2.15
2023-04-23T13:20:31.316Z,2.17
2023-04-23T13:23:03.608Z,2.11
2023-04-23T13:25:36.333Z,2.28
2023-04-23T13:28:11.521Z,2.31
2023-04-23T13:30:43.797Z,2.23
2023-04-23T13:33:16.061Z,2.21
2023-04-23T13:35:48.468Z,2.19
2023-04-23T13:38:21.187Z,2.09
2023-04-23T13:40:53.418Z,2.19
2023-04-23T13:43:28.348Z,2.16
2023-04-23T13:46:01.403Z,1.97
2023-04-23T13:48:33.983Z,2.02
2023-04-23T13:51:17.955Z,2.26
2023-04-23T13:53:59.344Z,1.96
2023-04-23T13:56:32.843Z,1.71
2023-04-23T13:59:18.309Z,2.00
2023-04-23T14:01:52.392Z,2.12
2023-04-23T14:04:28.735Z,2.03
2023-04-23T14:07:01.106Z,1.79
2023-04-23T14:09:33.307Z,2.03
2023-04-23T14:12:05.667Z,1.99
2023-04-23T14:14:41.541Z,2.20
2023-04-23T14:17:13.709Z,2.11
2023-04-23T14:19:45.915Z,2.23
2023-04-23T14:22:18.234Z,2.19
2023-04-23T14:24:54.977Z,2.24
2023-04-23T14:27:27.260Z,2.21
2023-04-23T14:30:08.179Z,2.52
2023-04-23T14:32:40.424Z,1.95
2023-04-23T14:35:13.668Z,2.23
2023-04-23T14:37:46.031Z,2.09
2023-04-23T14:40:19.967Z,2.11
2023-04-23T14:42:53.770Z,2.13
2023-04-23T14:45:31.479Z,2.24
2023-04-23T14:48:04.111Z,2.09
2023-04-23T14:50:36.469Z,3.01
2023-04-23T14:53:10.684Z,2.88
2023-04-23T14:55:44.078Z,2.88
2023-04-23T14:58:16.238Z,3.03
2023-04-23T15:00:51.155Z,3.08
2023-04-23T15:03:23.690Z,2.69
2023-04-23T15:05:56.440Z,2.42
2023-04-23T15:08:28.863Z,2.85
2023-04-23T15:11:01.821Z,2.41
2023-04-23T15:13:52.794Z,2.17
2023-04-23T15:19:11.517Z,2.26
2023-04-23T15:21:44.089Z,2.29
2023-04-23T15:24:17.165Z,2.54
2023-04-23T15:26:49.740Z,2.34
2023-04-23T15:29:24.634Z,2.66
2023-04-23T15:31:59.812Z,2.74
2023-04-23T15:34:32.235Z,2.94
2023-04-23T15:37:05.002Z,2.74
2023-04-23T15:39:46.756Z,2.96
2023-04-23T15:42:21.338Z,3.08
2023-04-23T15:44:54.760Z,2.79
2023-04-23T15:47:29.684Z,2.96
2023-04-23T15:50:01.944Z,3.03
2023-04-23T15:52:34.867Z,2.90
2023-04-23T15:55:07.474Z,3.01
2023-04-23T15:57:39.706Z,3.42
2023-04-23T16:00:13.580Z,3.67
2023-04-23T16:02:48.523Z,3.66
2023-04-23T16:05:21.416Z,3.43
2023-04-23T16:07:53.784Z,3.69
2023-04-23T16:10:26.638Z,3.43
2023-04-23T16:12:58.932Z,3.17
2023-04-23T16:15:32.619Z,2.50
2023-04-23T16:18:07.528Z,2.77
2023-04-23T16:20:39.750Z,3.11
2023-04-23T16:23:11.960Z,3.15
2023-04-23T16:25:44.267Z,3.29
2023-04-23T16:28:16.737Z,3.14
2023-04-23T16:30:48.987Z,2.92
2023-04-23T16:33:25.896Z,2.74
2023-04-23T16:35:59.745Z,2.62
2023-04-23T16:38:31.872Z,2.70
2023-04-23T16:41:04.006Z,2.81
2023-04-23T16:43:36.223Z,2.79
2023-04-23T16:46:09.457Z,2.65
2023-04-23T16:48:44.368Z,3.00
2023-04-23T16:51:17.138Z,3.36
2023-04-23T16:53:49.582Z,2.93
2023-04-23T16:56:22.178Z,2.99
2023-04-23T16:58:54.858Z,3.19
2023-04-23T17:01:27.126Z,5.97
2023-04-23T17:04:02.069Z,9.56
2023-04-23T17:06:36.601Z,7.60
2023-04-23T17:09:08.888Z,4.52
2023-04-23T17:11:41.056Z,5.85
2023-04-23T17:14:13.228Z,6.07
2023-04-23T17:16:46.581Z,6.60
2023-04-23T17:19:21.406Z,4.80
2023-04-23T17:21:53.623Z,5.44
2023-04-23T17:24:27.372Z,4.31
2023-04-23T17:26:59.598Z,3.05
2023-04-23T17:29:31.860Z,6.66
2023-04-23T17:32:04.555Z,4.29
2023-04-23T17:34:40.979Z,4.61
2023-04-23T17:37:13.319Z,3.70
2023-04-23T17:39:46.327Z,4.31
2023-04-23T17:42:18.546Z,4.81
2023-04-23T17:44:53.645Z,3.78
2023-04-23T17:47:27.739Z,3.90
2023-04-23T17:50:02.592Z,5.66
2023-04-23T17:52:35.159Z,12.19
2023-04-23T17:55:08.581Z,16.52
2023-04-23T17:57:40.916Z,7.06
2023-04-23T18:00:14.556Z,6.31
2023-04-23T18:02:47.045Z,5.49
2023-04-23T18:05:22.270Z,4.54
2023-04-23T18:07:54.513Z,4.95
2023-04-23T18:10:26.937Z,4.83
2023-04-23T18:12:59.764Z,4.49
2023-04-23T18:15:34.002Z,5.20
2023-04-23T18:18:06.585Z,5.16
2023-04-23T18:20:41.500Z,4.64
2023-04-23T18:23:14.423Z,5.19
2023-04-23T18:25:46.928Z,4.83
2023-04-23T18:28:19.106Z,7.09
2023-04-23T18:30:51.493Z,7.30
2023-04-23T18:33:35.338Z,6.96
2023-04-23T18:36:24.750Z,6.29
2023-04-23T18:38:57.380Z,5.15
2023-04-23T18:41:31.119Z,5.61
2023-04-23T18:44:03.305Z,6.73
2023-04-23T18:46:35.777Z,5.49
2023-04-23T18:49:30.475Z,4.85
2023-04-23T18:52:05.228Z,5.19
2023-04-23T18:54:37.799Z,6.14
2023-04-23T18:57:09.996Z,5.03
2023-04-23T18:59:42.504Z,6.17
2023-04-23T19:02:28.157Z,5.33
2023-04-23T19:05:07.917Z,5.00
2023-04-23T19:07:43.246Z,5.22
2023-04-23T19:10:18.510Z,5.32
2023-04-23T19:12:53.540Z,4.16
2023-04-23T19:15:26.276Z,4.55
2023-04-23T19:17:58.722Z,4.36
2023-04-23T19:20:31.356Z,4.26
2023-04-23T19:23:09.021Z,4.01
2023-04-23T19:25:41.640Z,4.19
2023-04-23T19:28:13.895Z,4.16
2023-04-23T19:30:46.273Z,4.37
2023-04-23T19:33:18.427Z,4.71
2023-04-23T19:35:50.980Z,4.62
2023-04-23T19:38:26.034Z,4.34
2023-04-23T19:40:58.413Z,4.75
2023-04-23T19:43:30.645Z,4.92
2023-04-23T19:46:03.272Z,4.59
2023-04-23T19:48:35.454Z,5.77
2023-04-23T19:51:07.865Z,4.33
2023-04-23T19:53:42.725Z,4.19
2023-04-23T19:56:15.500Z,4.30
2023-04-23T19:58:47.923Z,4.44
2023-04-23T20:01:20.210Z,4.17
2023-04-23T20:03:53.871Z,4.31
2023-04-23T20:06:26.567Z,4.39
2023-04-23T20:09:08.151Z,4.49
2023-04-23T20:11:40.519Z,4.86
2023-04-23T20:14:13.384Z,4.67
2023-04-23T20:16:47.497Z,4.86
2023-04-23T20:19:20.623Z,4.93
2023-04-23T20:21:52.794Z,4.84
2023-04-23T20:24:27.520Z,4.60
2023-04-23T20:27:03.188Z,4.88
2023-04-23T20:29:35.926Z,4.34
2023-04-23T20:32:08.205Z,3.68
2023-04-23T20:34:40.804Z,3.66
2023-04-23T20:37:13.875Z,3.43
2023-04-23T20:39:49.191Z,3.77
2023-04-23T20:42:21.476Z,3.42
2023-04-23T20:44:53.914Z,3.59
2023-04-23T20:47:26.217Z,3.21
2023-04-23T20:49:58.436Z,3.38
2023-04-23T20:52:30.764Z,3.16
2023-04-23T20:55:06.134Z,3.30
2023-04-23T20:57:38.308Z,3.52
2023-04-23T21:00:12.106Z,3.44
2023-04-23T21:02:44.670Z,3.38
2023-04-23T21:05:17.381Z,3.31
2023-04-23T21:07:50.732Z,3.13
2023-04-23T21:10:25.925Z,3.31
2023-04-23T21:13:01.194Z,2.91
2023-04-23T21:15:35.242Z,2.34
2023-04-23T21:18:09.760Z,2.05
2023-04-23T21:20:42.049Z,1.70
2023-04-23T21:23:14.891Z,1.74
2023-04-23T21:25:49.833Z,1.63
2023-04-23T21:28:22.549Z,1.44
2023-04-23T21:30:56.416Z,1.43
2023-04-23T21:33:29.828Z,1.26
2023-04-23T21:36:02.062Z,1.19
2023-04-23T21:38:34.295Z,1.17
2023-04-23T21:41:09.177Z,1.17
2023-04-23T21:43:41.906Z,1.11
2023-04-23T21:46:14.251Z,1.11
2023-04-23T21:48:47.362Z,1.14
2023-04-23T21:51:19.551Z,1.12
2023-04-23T21:53:51.813Z,1.15
2023-04-23T21:56:26.883Z,1.21
2023-04-23T21:58:59.159Z,1.32
2023-04-23T22:01:32.581Z,1.17
2023-04-23T22:04:06.597Z,1.36
2023-04-23T22:06:39.114Z,1.31
2023-04-23T22:09:11.391Z,1.39
2023-04-23T22:11:55.592Z,1.37
2023-04-23T22:14:33.725Z,1.45
2023-04-23T22:17:07.735Z,1.40
2023-04-23T22:19:40.595Z,1.34
2023-04-23T22:22:12.855Z,1.76
2023-04-23T22:24:45.104Z,1.76
2023-04-23T22:27:19.943Z,1.74
2023-04-23T22:29:52.155Z,1.95
2023-04-23T22:32:24.527Z,2.04
2023-04-23T22:34:57.387Z,2.16
2023-04-23T22:37:29.875Z,2.19
2023-04-23T22:40:02.242Z,2.54
2023-04-23T22:42:37.785Z,2.82
2023-04-23T22:45:11.276Z,3.31
2023-04-23T22:47:43.803Z,3.60
2023-04-23T22:50:16.381Z,4.05
2023-04-23T22:52:48.549Z,5.16
2023-04-23T22:55:21.160Z,7.30
2023-04-23T22:57:56.086Z,9.57
2023-04-23T23:00:28.516Z,8.04
2023-04-23T23:03:00.816Z,5.39
2023-04-23T23:05:33.207Z,3.76
2023-04-23T23:08:05.438Z,2.79
2023-04-23T23:10:38.229Z,2.23
2023-04-23T23:13:13.139Z,1.76
2023-04-23T23:15:45.516Z,1.59
2023-04-23T23:18:17.785Z,1.76
2023-04-23T23:20:49.997Z,1.73
2023-04-23T23:23:22.445Z,2.03
2023-04-23T23:25:55.205Z,2.19
2023-04-23T23:28:30.011Z,2.42
2023-04-23T23:31:02.376Z,2.36
2023-04-23T23:33:35.899Z,2.35
2023-04-23T23:36:08.527Z,2.64
2023-04-23T23:38:40.696Z,2.59
2023-04-23T23:41:12.989Z,2.79
2023-04-23T23:43:47.711Z,2.66
2023-04-23T23:46:20.634Z,2.47
2023-04-23T23:48:53.057Z,2.16
2023-04-23T23:51:25.315Z,2.26
2023-04-23T23:53:57.544Z,1.85
2023-04-23T23:56:29.945Z,1.56
2023-04-23T23:59:04.697Z,1.61
